sensor_id;sensor_type;location;lat;lon;timestamp;P1;durP1;ratioP1;P2;durP2;ratioP2
3006;SDS011;1513;47.650;10.720;2022-12-07T00:01:26;27.23;;;12.27;;
3006;SDS011;1513;47.650;10.720;2022-12-07T00:03:57;24.30;;;10.97;;
3006;SDS011;1513;47.650;10.720;2022-12-07T00:06:34;27.00;;;11.60;;
3006;SDS011;1513;47.650;10.720;2022-12-07T00:09:02;23.33;;;10.70;;
3006;SDS011;1513;47.650;10.720;2022-12-07T00:11:29;24.87;;;11.03;;
3006;SDS011;1513;47.650;10.720;2022-12-07T00:13:57;24.90;;;10.70;;
3006;SDS011;1513;47.650;10.720;2022-12-07T00:16:26;26.40;;;11.20;;
3006;SDS011;1513;47.650;10.720;2022-12-07T00:18:54;25.57;;;11.83;;
3006;SDS011;1513;47.650;10.720;2022-12-07T00:21:21;23.20;;;10.53;;
3006;SDS011;1513;47.650;10.720;2022-12-07T00:23:51;22.73;;;10.80;;
3006;SDS011;1513;47.650;10.720;2022-12-07T00:26:19;23.10;;;11.03;;
3006;SDS011;1513;47.650;10.720;2022-12-07T00:28:47;23.03;;;11.20;;
3006;SDS011;1513;47.650;10.720;2022-12-07T00:31:25;22.40;;;10.27;;
3006;SDS011;1513;47.650;10.720;2022-12-07T00:33:53;25.00;;;11.30;;
3006;SDS011;1513;47.650;10.720;2022-12-07T00:36:21;24.73;;;12.17;;
3006;SDS011;1513;47.650;10.720;2022-12-07T00:38:48;27.03;;;11.87;;
3006;SDS011;1513;47.650;10.720;2022-12-07T00:41:16;26.30;;;12.00;;
3006;SDS011;1513;47.650;10.720;2022-12-07T00:43:44;25.23;;;12.53;;
3006;SDS011;1513;47.650;10.720;2022-12-07T00:46:12;24.20;;;11.60;;
3006;SDS011;1513;47.650;10.720;2022-12-07T00:48:39;27.10;;;10.57;;
3006;SDS011;1513;47.650;10.720;2022-12-07T00:51:05;28.17;;;11.63;;
3006;SDS011;1513;47.650;10.720;2022-12-07T00:53:35;23.37;;;11.00;;
3006;SDS011;1513;47.650;10.720;2022-12-07T00:56:05;28.23;;;10.53;;
3006;SDS011;1513;47.650;10.720;2022-12-07T00:58:33;23.37;;;11.03;;
3006;SDS011;1513;47.650;10.720;2022-12-07T01:01:00;25.70;;;10.70;;
3006;SDS011;1513;47.650;10.720;2022-12-07T01:03:27;27.27;;;11.07;;
3006;SDS011;1513;47.650;10.720;2022-12-07T01:05:54;22.47;;;10.33;;
3006;SDS011;1513;47.650;10.720;2022-12-07T01:08:21;27.03;;;11.33;;
3006;SDS011;1513;47.650;10.720;2022-12-07T01:10:48;24.73;;;11.57;;
3006;SDS011;1513;47.650;10.720;2022-12-07T01:13:15;28.00;;;12.63;;
3006;SDS011;1513;47.650;10.720;2022-12-07T01:15:42;26.07;;;11.30;;
3006;SDS011;1513;47.650;10.720;2022-12-07T01:18:09;25.10;;;12.00;;
3006;SDS011;1513;47.650;10.720;2022-12-07T01:20:36;23.73;;;11.37;;
3006;SDS011;1513;47.650;10.720;2022-12-07T01:23:03;28.97;;;11.93;;
3006;SDS011;1513;47.650;10.720;2022-12-07T01:25:29;28.87;;;12.50;;
3006;SDS011;1513;47.650;10.720;2022-12-07T01:27:55;30.53;;;12.93;;
3006;SDS011;1513;47.650;10.720;2022-12-07T01:30:22;26.67;;;11.70;;
3006;SDS011;1513;47.650;10.720;2022-12-07T01:32:48;27.87;;;12.50;;
3006;SDS011;1513;47.650;10.720;2022-12-07T01:35:14;26.87;;;11.73;;
3006;SDS011;1513;47.650;10.720;2022-12-07T01:37:40;26.00;;;11.10;;
3006;SDS011;1513;47.650;10.720;2022-12-07T01:40:07;25.67;;;11.60;;
3006;SDS011;1513;47.650;10.720;2022-12-07T01:42:35;25.23;;;11.63;;
3006;SDS011;1513;47.650;10.720;2022-12-07T01:48:01;27.00;;;10.87;;
3006;SDS011;1513;47.650;10.720;2022-12-07T01:50:28;30.17;;;12.97;;
3006;SDS011;1513;47.650;10.720;2022-12-07T01:52:57;30.00;;;13.10;;
3006;SDS011;1513;47.650;10.720;2022-12-07T01:55:26;27.60;;;12.50;;
3006;SDS011;1513;47.650;10.720;2022-12-07T01:57:53;27.73;;;12.47;;
3006;SDS011;1513;47.650;10.720;2022-12-07T02:00:20;28.57;;;12.90;;
3006;SDS011;1513;47.650;10.720;2022-12-07T02:02:47;28.57;;;13.10;;
3006;SDS011;1513;47.650;10.720;2022-12-07T02:05:25;30.10;;;13.70;;
3006;SDS011;1513;47.650;10.720;2022-12-07T02:07:53;32.60;;;13.80;;
3006;SDS011;1513;47.650;10.720;2022-12-07T02:10:22;30.30;;;13.73;;
3006;SDS011;1513;47.650;10.720;2022-12-07T02:13:02;29.70;;;13.27;;
3006;SDS011;1513;47.650;10.720;2022-12-07T02:21:34;31.90;;;13.10;;
3006;SDS011;1513;47.650;10.720;2022-12-07T02:30:11;30.30;;;13.30;;
3006;SDS011;1513;47.650;10.720;2022-12-07T02:35:28;33.73;;;13.77;;
3006;SDS011;1513;47.650;10.720;2022-12-07T02:44:26;28.00;;;11.03;;
3006;SDS011;1513;47.650;10.720;2022-12-07T02:46:54;31.40;;;12.60;;
3006;SDS011;1513;47.650;10.720;2022-12-07T02:49:26;30.00;;;12.57;;
3006;SDS011;1513;47.650;10.720;2022-12-07T02:51:53;29.43;;;12.40;;
3006;SDS011;1513;47.650;10.720;2022-12-07T02:54:20;27.90;;;11.87;;
3006;SDS011;1513;47.650;10.720;2022-12-07T03:19:03;29.13;;;11.50;;
3006;SDS011;1513;47.650;10.720;2022-12-07T03:24:49;38.47;;;13.00;;
3006;SDS011;1513;47.650;10.720;2022-12-07T03:27:57;29.83;;;12.87;;
3006;SDS011;1513;47.650;10.720;2022-12-07T03:30:23;33.00;;;13.70;;
3006;SDS011;1513;47.650;10.720;2022-12-07T03:33:11;30.03;;;11.47;;
3006;SDS011;1513;47.650;10.720;2022-12-07T03:35:40;32.07;;;13.37;;
3006;SDS011;1513;47.650;10.720;2022-12-07T03:40:48;31.97;;;13.80;;
3006;SDS011;1513;47.650;10.720;2022-12-07T03:43:16;34.03;;;13.63;;
3006;SDS011;1513;47.650;10.720;2022-12-07T03:45:44;30.33;;;12.90;;
3006;SDS011;1513;47.650;10.720;2022-12-07T03:48:24;28.40;;;12.80;;
3006;SDS011;1513;47.650;10.720;2022-12-07T03:53:30;28.27;;;12.30;;
3006;SDS011;1513;47.650;10.720;2022-12-07T03:56:05;24.73;;;11.60;;
3006;SDS011;1513;47.650;10.720;2022-12-07T03:58:32;32.90;;;13.47;;
3006;SDS011;1513;47.650;10.720;2022-12-07T04:00:59;25.40;;;11.87;;
3006;SDS011;1513;47.650;10.720;2022-12-07T04:03:25;27.30;;;12.57;;
3006;SDS011;1513;47.650;10.720;2022-12-07T04:05:51;32.73;;;13.90;;
3006;SDS011;1513;47.650;10.720;2022-12-07T04:08:18;31.40;;;13.70;;
3006;SDS011;1513;47.650;10.720;2022-12-07T04:10:44;28.20;;;13.00;;
3006;SDS011;1513;47.650;10.720;2022-12-07T04:13:11;29.50;;;12.77;;
3006;SDS011;1513;47.650;10.720;2022-12-07T04:15:37;32.43;;;14.10;;
3006;SDS011;1513;47.650;10.720;2022-12-07T04:18:03;37.43;;;15.37;;
3006;SDS011;1513;47.650;10.720;2022-12-07T04:20:29;36.30;;;14.57;;
3006;SDS011;1513;47.650;10.720;2022-12-07T04:22:55;34.53;;;13.63;;
3006;SDS011;1513;47.650;10.720;2022-12-07T04:25:21;36.37;;;14.53;;
3006;SDS011;1513;47.650;10.720;2022-12-07T04:27:48;35.83;;;14.37;;
3006;SDS011;1513;47.650;10.720;2022-12-07T04:30:14;35.57;;;14.77;;
3006;SDS011;1513;47.650;10.720;2022-12-07T04:32:40;33.57;;;14.47;;
3006;SDS011;1513;47.650;10.720;2022-12-07T04:35:07;36.50;;;14.83;;
3006;SDS011;1513;47.650;10.720;2022-12-07T04:37:33;34.60;;;14.33;;
3006;SDS011;1513;47.650;10.720;2022-12-07T04:40:00;34.53;;;14.70;;
3006;SDS011;1513;47.650;10.720;2022-12-07T04:42:26;39.93;;;15.93;;
3006;SDS011;1513;47.650;10.720;2022-12-07T04:44:52;36.70;;;16.00;;
3006;SDS011;1513;47.650;10.720;2022-12-07T04:47:18;35.93;;;16.17;;
3006;SDS011;1513;47.650;10.720;2022-12-07T04:49:44;40.33;;;15.60;;
3006;SDS011;1513;47.650;10.720;2022-12-07T04:52:11;39.63;;;17.00;;
3006;SDS011;1513;47.650;10.720;2022-12-07T04:54:37;47.87;;;17.17;;
3006;SDS011;1513;47.650;10.720;2022-12-07T04:57:03;39.43;;;16.73;;
3006;SDS011;1513;47.650;10.720;2022-12-07T04:59:29;41.00;;;17.37;;
3006;SDS011;1513;47.650;10.720;2022-12-07T05:01:56;48.87;;;17.07;;
3006;SDS011;1513;47.650;10.720;2022-12-07T05:04:22;49.50;;;18.63;;
3006;SDS011;1513;47.650;10.720;2022-12-07T05:06:48;43.60;;;18.40;;
3006;SDS011;1513;47.650;10.720;2022-12-07T05:09:14;49.73;;;18.73;;
3006;SDS011;1513;47.650;10.720;2022-12-07T05:11:40;47.47;;;20.70;;
3006;SDS011;1513;47.650;10.720;2022-12-07T05:14:12;41.93;;;17.80;;
3006;SDS011;1513;47.650;10.720;2022-12-07T05:16:40;44.60;;;18.00;;
3006;SDS011;1513;47.650;10.720;2022-12-07T05:19:07;41.23;;;16.90;;
3006;SDS011;1513;47.650;10.720;2022-12-07T05:21:34;40.00;;;16.60;;
3006;SDS011;1513;47.650;10.720;2022-12-07T05:24:01;45.00;;;18.30;;
3006;SDS011;1513;47.650;10.720;2022-12-07T05:26:27;38.20;;;15.50;;
3006;SDS011;1513;47.650;10.720;2022-12-07T05:28:54;44.23;;;18.63;;
3006;SDS011;1513;47.650;10.720;2022-12-07T05:31:21;49.90;;;18.10;;
3006;SDS011;1513;47.650;10.720;2022-12-07T05:33:48;46.00;;;18.50;;
3006;SDS011;1513;47.650;10.720;2022-12-07T05:36:14;44.43;;;16.50;;
3006;SDS011;1513;47.650;10.720;2022-12-07T05:38:41;39.93;;;16.27;;
3006;SDS011;1513;47.650;10.720;2022-12-07T05:41:08;45.87;;;17.00;;
3006;SDS011;1513;47.650;10.720;2022-12-07T05:43:57;46.43;;;19.00;;
3006;SDS011;1513;47.650;10.720;2022-12-07T05:46:23;42.80;;;18.27;;
3006;SDS011;1513;47.650;10.720;2022-12-07T05:48:50;30.73;;;13.10;;
3006;SDS011;1513;47.650;10.720;2022-12-07T05:51:16;42.23;;;16.30;;
3006;SDS011;1513;47.650;10.720;2022-12-07T05:53:42;46.83;;;19.87;;
3006;SDS011;1513;47.650;10.720;2022-12-07T05:56:08;44.33;;;17.83;;
3006;SDS011;1513;47.650;10.720;2022-12-07T05:58:35;38.33;;;17.07;;
3006;SDS011;1513;47.650;10.720;2022-12-07T06:01:20;49.03;;;18.50;;
3006;SDS011;1513;47.650;10.720;2022-12-07T06:03:46;42.73;;;17.30;;
3006;SDS011;1513;47.650;10.720;2022-12-07T06:06:12;46.10;;;17.90;;
3006;SDS011;1513;47.650;10.720;2022-12-07T06:08:38;44.20;;;18.77;;
3006;SDS011;1513;47.650;10.720;2022-12-07T06:11:04;40.23;;;17.33;;
3006;SDS011;1513;47.650;10.720;2022-12-07T06:13:49;42.40;;;17.00;;
3006;SDS011;1513;47.650;10.720;2022-12-07T06:16:16;45.13;;;18.33;;
3006;SDS011;1513;47.650;10.720;2022-12-07T06:18:42;46.33;;;18.20;;
3006;SDS011;1513;47.650;10.720;2022-12-07T06:21:08;39.67;;;17.23;;
3006;SDS011;1513;47.650;10.720;2022-12-07T06:23:34;43.00;;;18.37;;
3006;SDS011;1513;47.650;10.720;2022-12-07T06:26:00;43.17;;;17.57;;
3006;SDS011;1513;47.650;10.720;2022-12-07T06:28:27;41.40;;;17.60;;
3006;SDS011;1513;47.650;10.720;2022-12-07T06:30:57;40.37;;;16.93;;
3006;SDS011;1513;47.650;10.720;2022-12-07T06:33:24;46.67;;;18.10;;
3006;SDS011;1513;47.650;10.720;2022-12-07T06:35:50;48.37;;;20.00;;
3006;SDS011;1513;47.650;10.720;2022-12-07T06:38:16;41.30;;;17.30;;
3006;SDS011;1513;47.650;10.720;2022-12-07T06:40:43;44.70;;;17.50;;
3006;SDS011;1513;47.650;10.720;2022-12-07T06:43:09;42.13;;;17.63;;
3006;SDS011;1513;47.650;10.720;2022-12-07T06:45:35;45.73;;;18.70;;
3006;SDS011;1513;47.650;10.720;2022-12-07T06:48:01;47.37;;;18.47;;
3006;SDS011;1513;47.650;10.720;2022-12-07T06:50:28;42.07;;;17.93;;
3006;SDS011;1513;47.650;10.720;2022-12-07T06:52:54;44.63;;;18.20;;
3006;SDS011;1513;47.650;10.720;2022-12-07T06:55:20;38.70;;;16.37;;
3006;SDS011;1513;47.650;10.720;2022-12-07T06:57:46;41.93;;;17.40;;
3006;SDS011;1513;47.650;10.720;2022-12-07T07:00:13;43.87;;;17.13;;
3006;SDS011;1513;47.650;10.720;2022-12-07T07:02:39;39.27;;;17.10;;
3006;SDS011;1513;47.650;10.720;2022-12-07T07:05:06;37.07;;;15.30;;
3006;SDS011;1513;47.650;10.720;2022-12-07T07:07:32;40.37;;;16.33;;
3006;SDS011;1513;47.650;10.720;2022-12-07T07:09:58;37.17;;;16.40;;
3006;SDS011;1513;47.650;10.720;2022-12-07T07:12:25;36.87;;;16.03;;
3006;SDS011;1513;47.650;10.720;2022-12-07T07:14:51;41.20;;;17.90;;
3006;SDS011;1513;47.650;10.720;2022-12-07T07:17:17;34.37;;;15.43;;
3006;SDS011;1513;47.650;10.720;2022-12-07T07:19:43;35.13;;;14.30;;
3006;SDS011;1513;47.650;10.720;2022-12-07T07:22:09;28.53;;;13.13;;
3006;SDS011;1513;47.650;10.720;2022-12-07T07:24:36;32.27;;;14.70;;
3006;SDS011;1513;47.650;10.720;2022-12-07T07:27:02;23.33;;;10.80;;
3006;SDS011;1513;47.650;10.720;2022-12-07T07:29:28;23.00;;;9.20;;
3006;SDS011;1513;47.650;10.720;2022-12-07T07:31:54;12.40;;;7.40;;
3006;SDS011;1513;47.650;10.720;2022-12-07T07:34:20;18.03;;;8.23;;
3006;SDS011;1513;47.650;10.720;2022-12-07T07:36:47;20.23;;;8.70;;
3006;SDS011;1513;47.650;10.720;2022-12-07T07:39:13;17.97;;;8.23;;
3006;SDS011;1513;47.650;10.720;2022-12-07T07:41:39;19.13;;;8.43;;
3006;SDS011;1513;47.650;10.720;2022-12-07T07:44:11;22.80;;;9.70;;
3006;SDS011;1513;47.650;10.720;2022-12-07T07:46:37;21.63;;;8.80;;
3006;SDS011;1513;47.650;10.720;2022-12-07T07:49:03;23.57;;;9.67;;
3006;SDS011;1513;47.650;10.720;2022-12-07T07:51:30;22.50;;;9.43;;
3006;SDS011;1513;47.650;10.720;2022-12-07T07:53:56;36.67;;;14.23;;
3006;SDS011;1513;47.650;10.720;2022-12-07T07:56:22;22.37;;;10.60;;
3006;SDS011;1513;47.650;10.720;2022-12-07T07:58:51;20.93;;;9.87;;
3006;SDS011;1513;47.650;10.720;2022-12-07T08:01:17;21.67;;;9.27;;
3006;SDS011;1513;47.650;10.720;2022-12-07T08:03:45;23.93;;;9.80;;
3006;SDS011;1513;47.650;10.720;2022-12-07T08:06:13;21.50;;;8.97;;
3006;SDS011;1513;47.650;10.720;2022-12-07T08:08:39;21.37;;;9.43;;
3006;SDS011;1513;47.650;10.720;2022-12-07T08:11:06;17.87;;;8.97;;
3006;SDS011;1513;47.650;10.720;2022-12-07T08:13:33;23.13;;;8.20;;
3006;SDS011;1513;47.650;10.720;2022-12-07T08:16:02;20.93;;;9.20;;
3006;SDS011;1513;47.650;10.720;2022-12-07T08:18:29;18.97;;;9.67;;
3006;SDS011;1513;47.650;10.720;2022-12-07T08:21:01;19.57;;;8.80;;
3006;SDS011;1513;47.650;10.720;2022-12-07T08:23:29;14.07;;;6.97;;
3006;SDS011;1513;47.650;10.720;2022-12-07T08:26:00;16.13;;;7.57;;
3006;SDS011;1513;47.650;10.720;2022-12-07T08:28:27;31.20;;;12.83;;
3006;SDS011;1513;47.650;10.720;2022-12-07T08:31:05;21.13;;;9.87;;
3006;SDS011;1513;47.650;10.720;2022-12-07T08:33:33;20.30;;;7.97;;
3006;SDS011;1513;47.650;10.720;2022-12-07T08:36:03;27.33;;;9.00;;
3006;SDS011;1513;47.650;10.720;2022-12-07T08:38:31;51.23;;;15.90;;
3006;SDS011;1513;47.650;10.720;2022-12-07T08:40:59;24.60;;;10.13;;
3006;SDS011;1513;47.650;10.720;2022-12-07T08:43:25;24.33;;;10.17;;
3006;SDS011;1513;47.650;10.720;2022-12-07T08:48:55;29.97;;;11.63;;
3006;SDS011;1513;47.650;10.720;2022-12-07T08:51:24;25.10;;;11.47;;
3006;SDS011;1513;47.650;10.720;2022-12-07T08:53:50;38.33;;;16.50;;
3006;SDS011;1513;47.650;10.720;2022-12-07T08:56:18;28.73;;;10.93;;
3006;SDS011;1513;47.650;10.720;2022-12-07T08:58:44;26.53;;;12.20;;
3006;SDS011;1513;47.650;10.720;2022-12-07T09:01:10;28.57;;;12.50;;
3006;SDS011;1513;47.650;10.720;2022-12-07T09:03:36;26.87;;;10.70;;
3006;SDS011;1513;47.650;10.720;2022-12-07T09:06:03;33.07;;;12.47;;
3006;SDS011;1513;47.650;10.720;2022-12-07T09:08:50;22.50;;;9.53;;
3006;SDS011;1513;47.650;10.720;2022-12-07T09:11:18;23.83;;;10.63;;
3006;SDS011;1513;47.650;10.720;2022-12-07T09:13:44;31.70;;;12.20;;
3006;SDS011;1513;47.650;10.720;2022-12-07T09:16:10;30.00;;;12.67;;
3006;SDS011;1513;47.650;10.720;2022-12-07T09:18:37;27.97;;;10.87;;
3006;SDS011;1513;47.650;10.720;2022-12-07T09:21:04;29.73;;;11.80;;
3006;SDS011;1513;47.650;10.720;2022-12-07T09:23:30;23.47;;;10.87;;
3006;SDS011;1513;47.650;10.720;2022-12-07T09:26:00;37.07;;;14.50;;
3006;SDS011;1513;47.650;10.720;2022-12-07T09:28:27;38.00;;;13.60;;
3006;SDS011;1513;47.650;10.720;2022-12-07T09:30:54;31.60;;;13.70;;
3006;SDS011;1513;47.650;10.720;2022-12-07T09:33:20;41.67;;;17.30;;
3006;SDS011;1513;47.650;10.720;2022-12-07T09:35:47;39.63;;;16.27;;
3006;SDS011;1513;47.650;10.720;2022-12-07T09:38:14;44.37;;;17.67;;
3006;SDS011;1513;47.650;10.720;2022-12-07T09:40:41;51.13;;;18.27;;
3006;SDS011;1513;47.650;10.720;2022-12-07T09:43:19;43.87;;;14.30;;
3006;SDS011;1513;47.650;10.720;2022-12-07T09:45:48;33.83;;;11.93;;
3006;SDS011;1513;47.650;10.720;2022-12-07T09:48:20;19.43;;;9.30;;
3006;SDS011;1513;47.650;10.720;2022-12-07T09:50:48;29.77;;;10.10;;
3006;SDS011;1513;47.650;10.720;2022-12-07T09:53:17;25.90;;;10.57;;
3006;SDS011;1513;47.650;10.720;2022-12-07T09:55:48;38.90;;;11.70;;
3006;SDS011;1513;47.650;10.720;2022-12-07T09:58:17;24.17;;;11.07;;
3006;SDS011;1513;47.650;10.720;2022-12-07T10:00:50;22.77;;;9.10;;
3006;SDS011;1513;47.650;10.720;2022-12-07T10:03:19;20.17;;;10.10;;
3006;SDS011;1513;47.650;10.720;2022-12-07T10:05:46;20.10;;;9.83;;
3006;SDS011;1513;47.650;10.720;2022-12-07T10:08:14;22.07;;;10.33;;
3006;SDS011;1513;47.650;10.720;2022-12-07T10:10:43;24.37;;;10.70;;
3006;SDS011;1513;47.650;10.720;2022-12-07T10:13:11;22.93;;;10.23;;
3006;SDS011;1513;47.650;10.720;2022-12-07T10:18:28;21.77;;;9.90;;
3006;SDS011;1513;47.650;10.720;2022-12-07T10:21:03;24.93;;;11.40;;
3006;SDS011;1513;47.650;10.720;2022-12-07T10:23:29;21.67;;;11.20;;
3006;SDS011;1513;47.650;10.720;2022-12-07T10:25:55;17.33;;;8.00;;
3006;SDS011;1513;47.650;10.720;2022-12-07T10:28:22;18.87;;;8.37;;
3006;SDS011;1513;47.650;10.720;2022-12-07T10:30:49;16.47;;;8.63;;
3006;SDS011;1513;47.650;10.720;2022-12-07T10:33:29;17.20;;;7.83;;
3006;SDS011;1513;47.650;10.720;2022-12-07T10:35:59;18.70;;;8.37;;
3006;SDS011;1513;47.650;10.720;2022-12-07T10:38:26;16.70;;;7.87;;
3006;SDS011;1513;47.650;10.720;2022-12-07T10:41:04;13.60;;;7.70;;
3006;SDS011;1513;47.650;10.720;2022-12-07T10:43:31;16.13;;;8.30;;
3006;SDS011;1513;47.650;10.720;2022-12-07T10:57:04;15.57;;;7.13;;
3006;SDS011;1513;47.650;10.720;2022-12-07T11:08:13;18.80;;;8.13;;
3006;SDS011;1513;47.650;10.720;2022-12-07T11:11:02;21.50;;;8.40;;
3006;SDS011;1513;47.650;10.720;2022-12-07T11:13:42;18.53;;;9.03;;
3006;SDS011;1513;47.650;10.720;2022-12-07T11:16:32;18.43;;;8.53;;
3006;SDS011;1513;47.650;10.720;2022-12-07T11:25:24;17.40;;;7.80;;
3006;SDS011;1513;47.650;10.720;2022-12-07T11:33:15;21.13;;;8.40;;
3006;SDS011;1513;47.650;10.720;2022-12-07T11:35:45;18.67;;;8.93;;
3006;SDS011;1513;47.650;10.720;2022-12-07T11:38:18;22.13;;;9.90;;
3006;SDS011;1513;47.650;10.720;2022-12-07T11:41:04;20.50;;;9.27;;
3006;SDS011;1513;47.650;10.720;2022-12-07T11:43:40;20.57;;;9.13;;
3006;SDS011;1513;47.650;10.720;2022-12-07T11:46:25;16.97;;;8.83;;
3006;SDS011;1513;47.650;10.720;2022-12-07T11:49:13;18.87;;;9.10;;
3006;SDS011;1513;47.650;10.720;2022-12-07T11:51:53;18.27;;;8.20;;
3006;SDS011;1513;47.650;10.720;2022-12-07T11:54:27;17.23;;;9.13;;
3006;SDS011;1513;47.650;10.720;2022-12-07T11:56:56;18.80;;;9.10;;
3006;SDS011;1513;47.650;10.720;2022-12-07T11:59:31;21.10;;;10.20;;
3006;SDS011;1513;47.650;10.720;2022-12-07T12:04:59;24.60;;;10.90;;
3006;SDS011;1513;47.650;10.720;2022-12-07T12:07:34;22.17;;;10.70;;
3006;SDS011;1513;47.650;10.720;2022-12-07T12:10:02;22.23;;;9.87;;
3006;SDS011;1513;47.650;10.720;2022-12-07T12:16:18;15.13;;;8.80;;
3006;SDS011;1513;47.650;10.720;2022-12-07T12:18:39;20.03;;;8.37;;
3006;SDS011;1513;47.650;10.720;2022-12-07T12:21:13;15.90;;;8.03;;
3006;SDS011;1513;47.650;10.720;2022-12-07T12:23:43;13.53;;;7.70;;
3006;SDS011;1513;47.650;10.720;2022-12-07T12:26:15;12.97;;;7.07;;
3006;SDS011;1513;47.650;10.720;2022-12-07T12:33:48;14.30;;;8.10;;
3006;SDS011;1513;47.650;10.720;2022-12-07T12:38:49;15.80;;;7.90;;
3006;SDS011;1513;47.650;10.720;2022-12-07T12:51:49;20.60;;;10.53;;
3006;SDS011;1513;47.650;10.720;2022-12-07T12:59:24;36.13;;;15.53;;
3006;SDS011;1513;47.650;10.720;2022-12-07T13:01:51;25.47;;;12.50;;
3006;SDS011;1513;47.650;10.720;2022-12-07T13:04:54;19.70;;;10.20;;
3006;SDS011;1513;47.650;10.720;2022-12-07T13:10:54;15.67;;;9.80;;
3006;SDS011;1513;47.650;10.720;2022-12-07T13:15:43;18.57;;;10.00;;
3006;SDS011;1513;47.650;10.720;2022-12-07T13:23:32;21.40;;;9.63;;
3006;SDS011;1513;47.650;10.720;2022-12-07T13:28:50;19.10;;;9.10;;
3006;SDS011;1513;47.650;10.720;2022-12-07T13:31:51;13.70;;;6.33;;
3006;SDS011;1513;47.650;10.720;2022-12-07T13:34:38;15.70;;;7.93;;
3006;SDS011;1513;47.650;10.720;2022-12-07T13:42:43;27.33;;;13.53;;
3006;SDS011;1513;47.650;10.720;2022-12-07T13:45:26;23.43;;;10.87;;
3006;SDS011;1513;47.650;10.720;2022-12-07T13:48:16;22.47;;;11.57;;
3006;SDS011;1513;47.650;10.720;2022-12-07T13:51:00;26.00;;;11.30;;
3006;SDS011;1513;47.650;10.720;2022-12-07T13:53:27;20.53;;;10.73;;
3006;SDS011;1513;47.650;10.720;2022-12-07T13:55:56;23.73;;;11.23;;
3006;SDS011;1513;47.650;10.720;2022-12-07T13:58:23;29.37;;;13.70;;
3006;SDS011;1513;47.650;10.720;2022-12-07T14:00:50;29.80;;;14.83;;
3006;SDS011;1513;47.650;10.720;2022-12-07T14:05:43;25.67;;;11.73;;
3006;SDS011;1513;47.650;10.720;2022-12-07T14:10:38;21.37;;;9.70;;
3006;SDS011;1513;47.650;10.720;2022-12-07T14:15:56;19.80;;;10.43;;
3006;SDS011;1513;47.650;10.720;2022-12-07T14:18:30;20.70;;;9.10;;
3006;SDS011;1513;47.650;10.720;2022-12-07T14:21:03;19.40;;;9.00;;
3006;SDS011;1513;47.650;10.720;2022-12-07T14:23:40;18.13;;;8.80;;
3006;SDS011;1513;47.650;10.720;2022-12-07T14:26:08;17.70;;;9.53;;
3006;SDS011;1513;47.650;10.720;2022-12-07T14:28:41;18.27;;;10.00;;
3006;SDS011;1513;47.650;10.720;2022-12-07T14:31:12;30.83;;;18.73;;
3006;SDS011;1513;47.650;10.720;2022-12-07T14:33:39;23.90;;;12.27;;
3006;SDS011;1513;47.650;10.720;2022-12-07T14:36:08;24.90;;;12.30;;
3006;SDS011;1513;47.650;10.720;2022-12-07T14:38:38;23.40;;;10.87;;
3006;SDS011;1513;47.650;10.720;2022-12-07T14:41:14;17.40;;;9.50;;
3006;SDS011;1513;47.650;10.720;2022-12-07T14:44:02;18.73;;;8.97;;
3006;SDS011;1513;47.650;10.720;2022-12-07T14:46:33;20.63;;;9.50;;
3006;SDS011;1513;47.650;10.720;2022-12-07T14:48:59;20.10;;;10.50;;
3006;SDS011;1513;47.650;10.720;2022-12-07T14:51:25;24.93;;;10.70;;
3006;SDS011;1513;47.650;10.720;2022-12-07T14:53:52;21.47;;;11.10;;
3006;SDS011;1513;47.650;10.720;2022-12-07T14:56:18;14.97;;;8.73;;
3006;SDS011;1513;47.650;10.720;2022-12-07T14:58:45;16.90;;;8.90;;
3006;SDS011;1513;47.650;10.720;2022-12-07T15:01:13;15.43;;;7.63;;
3006;SDS011;1513;47.650;10.720;2022-12-07T15:03:39;12.50;;;6.33;;
3006;SDS011;1513;47.650;10.720;2022-12-07T15:06:06;15.17;;;6.73;;
3006;SDS011;1513;47.650;10.720;2022-12-07T15:08:32;13.17;;;6.57;;
3006;SDS011;1513;47.650;10.720;2022-12-07T15:10:59;15.77;;;7.20;;
3006;SDS011;1513;47.650;10.720;2022-12-07T15:13:25;11.50;;;6.70;;
3006;SDS011;1513;47.650;10.720;2022-12-07T15:16:11;11.97;;;6.07;;
3006;SDS011;1513;47.650;10.720;2022-12-07T15:18:38;16.70;;;7.40;;
3006;SDS011;1513;47.650;10.720;2022-12-07T15:21:05;13.67;;;6.47;;
3006;SDS011;1513;47.650;10.720;2022-12-07T15:23:35;18.50;;;7.93;;
3006;SDS011;1513;47.650;10.720;2022-12-07T15:26:01;26.43;;;10.57;;
3006;SDS011;1513;47.650;10.720;2022-12-07T15:28:27;24.93;;;11.30;;
3006;SDS011;1513;47.650;10.720;2022-12-07T15:30:53;27.63;;;10.93;;
3006;SDS011;1513;47.650;10.720;2022-12-07T15:33:19;22.23;;;9.47;;
3006;SDS011;1513;47.650;10.720;2022-12-07T15:35:46;21.90;;;11.20;;
3006;SDS011;1513;47.650;10.720;2022-12-07T15:38:12;18.37;;;9.30;;
3006;SDS011;1513;47.650;10.720;2022-12-07T15:40:38;19.40;;;10.10;;
3006;SDS011;1513;47.650;10.720;2022-12-07T15:43:05;18.50;;;9.10;;
3006;SDS011;1513;47.650;10.720;2022-12-07T15:45:53;16.50;;;9.60;;
3006;SDS011;1513;47.650;10.720;2022-12-07T15:48:19;22.27;;;9.90;;
3006;SDS011;1513;47.650;10.720;2022-12-07T15:50:46;16.20;;;8.53;;
3006;SDS011;1513;47.650;10.720;2022-12-07T15:53:12;16.97;;;8.30;;
3006;SDS011;1513;47.650;10.720;2022-12-07T15:55:38;15.17;;;8.50;;
3006;SDS011;1513;47.650;10.720;2022-12-07T15:58:05;15.10;;;8.43;;
3006;SDS011;1513;47.650;10.720;2022-12-07T16:00:32;18.60;;;8.53;;
3006;SDS011;1513;47.650;10.720;2022-12-07T16:02:58;21.10;;;10.50;;
3006;SDS011;1513;47.650;10.720;2022-12-07T16:05:24;22.77;;;10.30;;
3006;SDS011;1513;47.650;10.720;2022-12-07T16:07:50;26.00;;;11.87;;
3006;SDS011;1513;47.650;10.720;2022-12-07T16:10:17;26.00;;;11.77;;
3006;SDS011;1513;47.650;10.720;2022-12-07T16:12:43;19.60;;;10.90;;
3006;SDS011;1513;47.650;10.720;2022-12-07T16:15:09;20.73;;;11.20;;
3006;SDS011;1513;47.650;10.720;2022-12-07T16:17:35;23.60;;;11.50;;
3006;SDS011;1513;47.650;10.720;2022-12-07T16:20:02;24.43;;;11.47;;
3006;SDS011;1513;47.650;10.720;2022-12-07T16:22:29;26.80;;;12.97;;
3006;SDS011;1513;47.650;10.720;2022-12-07T16:24:56;28.07;;;12.90;;
3006;SDS011;1513;47.650;10.720;2022-12-07T16:27:22;32.77;;;14.60;;
3006;SDS011;1513;47.650;10.720;2022-12-07T16:29:48;32.20;;;14.83;;
3006;SDS011;1513;47.650;10.720;2022-12-07T16:32:14;22.40;;;10.37;;
3006;SDS011;1513;47.650;10.720;2022-12-07T16:34:40;21.30;;;9.97;;
3006;SDS011;1513;47.650;10.720;2022-12-07T16:37:07;16.33;;;8.03;;
3006;SDS011;1513;47.650;10.720;2022-12-07T16:39:33;18.53;;;8.60;;
3006;SDS011;1513;47.650;10.720;2022-12-07T16:41:59;15.73;;;7.90;;
3006;SDS011;1513;47.650;10.720;2022-12-07T16:44:26;21.70;;;8.63;;
3006;SDS011;1513;47.650;10.720;2022-12-07T16:46:52;19.00;;;9.00;;
3006;SDS011;1513;47.650;10.720;2022-12-07T16:49:18;16.97;;;8.17;;
3006;SDS011;1513;47.650;10.720;2022-12-07T16:51:45;15.93;;;8.40;;
3006;SDS011;1513;47.650;10.720;2022-12-07T16:54:14;16.80;;;8.40;;
3006;SDS011;1513;47.650;10.720;2022-12-07T16:56:40;15.10;;;7.80;;
3006;SDS011;1513;47.650;10.720;2022-12-07T16:59:07;13.37;;;7.40;;
3006;SDS011;1513;47.650;10.720;2022-12-07T17:01:33;13.53;;;7.40;;
3006;SDS011;1513;47.650;10.720;2022-12-07T17:04:01;14.27;;;8.37;;
3006;SDS011;1513;47.650;10.720;2022-12-07T17:06:28;14.93;;;8.57;;
3006;SDS011;1513;47.650;10.720;2022-12-07T17:08:56;17.37;;;9.63;;
3006;SDS011;1513;47.650;10.720;2022-12-07T17:11:23;14.43;;;8.60;;
3006;SDS011;1513;47.650;10.720;2022-12-07T17:13:53;15.33;;;9.00;;
3006;SDS011;1513;47.650;10.720;2022-12-07T17:16:38;13.33;;;6.70;;
3006;SDS011;1513;47.650;10.720;2022-12-07T17:19:09;8.93;;;6.30;;